createdAt,value
2017-11-15T00:00:14.856Z,398.97
2017-11-15T00:02:43.186Z,272.43
2017-11-15T00:05:10.775Z,196.60
2017-11-15T00:07:38.277Z,334.07
2017-11-15T00:10:06.595Z,224.13
2017-11-15T00:12:34.156Z,248.17
2017-11-15T00:15:01.726Z,378.33
2017-11-15T00:17:29.294Z,277.63
2017-11-15T00:19:56.879Z,280.57
2017-11-15T00:22:37.419Z,149.43
2017-11-15T00:25:04.960Z,218.50
2017-11-15T00:27:32.550Z,115.70
2017-11-15T00:30:00.091Z,175.10
2017-11-15T00:32:27.675Z,103.83
2017-11-15T00:34:55.245Z,74.37
2017-11-15T00:37:23.371Z,106.90
2017-11-15T00:39:50.909Z,59.03
2017-11-15T00:42:18.452Z,40.53
2017-11-15T00:44:45.997Z,44.83
2017-11-15T00:47:13.528Z,45.57
2017-11-15T00:49:41.871Z,44.43
2017-11-15T00:52:09.427Z,74.73
2017-11-15T00:54:37.037Z,153.23
2017-11-15T00:57:04.624Z,122.23
2017-11-15T00:59:32.929Z,198.13
2017-11-15T01:02:00.530Z,243.80
2017-11-15T01:04:28.085Z,515.07
2017-11-15T01:06:55.685Z,454.60
2017-11-15T01:09:24.020Z,139.23
2017-11-15T01:11:51.560Z,228.77
2017-11-15T01:14:19.100Z,458.40
2017-11-15T01:16:47.445Z,393.13
2017-11-15T01:19:14.965Z,229.03
2017-11-15T01:21:43.295Z,142.63
2017-11-15T01:24:10.816Z,65.33
2017-11-15T01:26:38.489Z,58.40
2017-11-15T01:29:06.049Z,37.67
2017-11-15T01:31:33.567Z,31.27
2017-11-15T01:34:01.181Z,30.10
2017-11-15T01:36:28.755Z,31.73
2017-11-15T01:38:56.276Z,36.80
2017-11-15T01:41:23.915Z,35.80
2017-11-15T01:43:51.484Z,34.70
2017-11-15T01:46:19.017Z,32.20
2017-11-15T01:48:46.577Z,26.10
2017-11-15T01:51:14.230Z,24.10
2017-11-15T01:53:41.746Z,29.60
2017-11-15T01:56:09.315Z,29.43
2017-11-15T01:58:36.917Z,27.00
2017-11-15T02:01:14.133Z,25.10
2017-11-15T02:03:41.717Z,27.23
2017-11-15T02:06:09.249Z,27.50
2017-11-15T02:08:36.819Z,29.53
2017-11-15T02:11:04.390Z,28.63
2017-11-15T02:13:31.990Z,30.87
2017-11-15T02:15:59.527Z,30.30
2017-11-15T02:18:27.083Z,33.07
2017-11-15T02:20:54.694Z,29.83
2017-11-15T02:23:22.294Z,26.37
2017-11-15T02:25:49.857Z,35.37
2017-11-15T02:28:17.440Z,27.17
2017-11-15T02:30:44.993Z,24.80
2017-11-15T02:33:12.565Z,26.60
2017-11-15T02:35:40.128Z,31.67
2017-11-15T02:38:07.790Z,29.27
2017-11-15T02:40:35.325Z,29.70
2017-11-15T02:43:02.912Z,37.50
2017-11-15T02:45:30.568Z,31.83
2017-11-15T02:47:58.900Z,26.00
2017-11-15T02:50:26.432Z,27.60
2017-11-15T02:52:54.017Z,29.40
2017-11-15T02:55:21.524Z,35.13
2017-11-15T02:57:49.061Z,34.20
2017-11-15T03:00:16.611Z,36.97
2017-11-15T03:02:44.147Z,33.70
2017-11-15T03:05:12.554Z,33.47
2017-11-15T03:07:40.102Z,32.80
2017-11-15T03:10:07.657Z,38.30
2017-11-15T03:12:35.220Z,33.70
2017-11-15T03:15:03.564Z,43.57
2017-11-15T03:17:31.117Z,26.30
2017-11-15T03:19:58.644Z,28.20
2017-11-15T03:22:26.182Z,31.13
2017-11-15T03:24:54.533Z,29.73
2017-11-15T03:27:22.053Z,35.53
2017-11-15T03:29:50.410Z,25.13
2017-11-15T03:32:18.745Z,30.70
2017-11-15T03:34:46.312Z,29.90
2017-11-15T03:37:13.902Z,32.27
2017-11-15T03:39:41.477Z,29.00
2017-11-15T03:42:08.993Z,26.70
2017-11-15T03:44:36.545Z,29.97
2017-11-15T03:47:04.122Z,37.87
2017-11-15T03:49:31.684Z,30.50
2017-11-15T03:51:59.384Z,26.90
2017-11-15T03:54:26.959Z,25.30
2017-11-15T03:56:54.570Z,26.30
2017-11-15T03:59:22.101Z,20.43
2017-11-15T04:01:49.650Z,20.77
2017-11-15T04:04:17.188Z,26.57
2017-11-15T04:06:44.761Z,22.40
2017-11-15T04:09:12.297Z,18.60
2017-11-15T04:11:39.859Z,22.00
2017-11-15T04:14:07.417Z,22.20
2017-11-15T04:16:35.727Z,20.73
2017-11-15T04:19:03.273Z,24.57
2017-11-15T04:21:30.788Z,26.07
2017-11-15T04:23:58.370Z,24.77
2017-11-15T04:26:25.904Z,20.70
2017-11-15T04:28:53.405Z,22.23
2017-11-15T04:31:20.984Z,20.23
2017-11-15T04:33:49.268Z,25.43
2017-11-15T04:36:17.551Z,26.83
2017-11-15T04:38:45.892Z,26.87
2017-11-15T04:41:13.547Z,32.63
2017-11-15T04:43:41.085Z,30.13
2017-11-15T04:46:08.650Z,47.87
2017-11-15T04:48:36.163Z,34.17
2017-11-15T04:51:03.778Z,46.97
2017-11-15T04:53:32.670Z,34.40
2017-11-15T04:56:00.246Z,56.40
2017-11-15T04:58:27.789Z,35.40
2017-11-15T05:00:56.110Z,58.67
2017-11-15T05:03:23.645Z,62.60
2017-11-15T05:05:51.165Z,75.87
2017-11-15T05:08:18.860Z,26.47
2017-11-15T05:10:46.430Z,23.70
2017-11-15T05:13:13.967Z,31.13
2017-11-15T05:15:41.531Z,22.83
2017-11-15T05:18:09.057Z,21.77
2017-11-15T05:20:36.585Z,25.93
2017-11-15T05:23:04.150Z,19.27
2017-11-15T05:25:32.424Z,18.27
2017-11-15T05:28:00.743Z,18.37
2017-11-15T05:30:28.263Z,21.53
2017-11-15T05:32:55.821Z,25.97
2017-11-15T05:35:23.350Z,24.97
2017-11-15T05:37:50.869Z,18.83
2017-11-15T05:40:19.198Z,20.43
2017-11-15T05:42:46.699Z,24.70
2017-11-15T05:45:14.316Z,24.60
2017-11-15T05:47:41.837Z,24.83
2017-11-15T05:50:09.395Z,21.30
2017-11-15T05:52:37.018Z,25.27
2017-11-15T05:55:04.682Z,21.70
2017-11-15T05:57:32.236Z,28.10
2017-11-15T05:59:59.758Z,24.60
2017-11-15T06:02:27.308Z,21.73
2017-11-15T06:04:54.829Z,16.43
2017-11-15T06:07:22.417Z,19.97
2017-11-15T06:09:50.030Z,17.10
2017-11-15T06:12:17.603Z,17.13
2017-11-15T06:14:45.139Z,16.53
2017-11-15T06:17:12.648Z,22.80
2017-11-15T06:19:40.280Z,20.87
2017-11-15T06:22:08.582Z,17.63
2017-11-15T06:24:36.068Z,19.90
2017-11-15T06:27:03.714Z,17.57
2017-11-15T06:29:31.170Z,20.53
2017-11-15T06:31:58.817Z,16.73
2017-11-15T06:34:27.124Z,16.70
2017-11-15T06:36:54.685Z,16.20
2017-11-15T06:39:22.116Z,17.70
2017-11-15T06:41:49.661Z,18.00
2017-11-15T06:44:17.243Z,19.07
2017-11-15T06:46:44.825Z,17.17
2017-11-15T06:49:12.337Z,19.13
2017-11-15T06:51:39.904Z,18.17
2017-11-15T06:54:07.486Z,21.00
2017-11-15T06:56:35.032Z,20.03
2017-11-15T06:59:02.555Z,22.37
2017-11-15T07:01:30.866Z,21.13
2017-11-15T07:03:58.376Z,19.00
2017-11-15T07:06:25.904Z,21.47
2017-11-15T07:08:53.461Z,21.93
2017-11-15T07:11:20.973Z,17.87
2017-11-15T07:13:48.502Z,20.10
2017-11-15T07:16:16.129Z,21.50
2017-11-15T07:18:44.412Z,19.13
2017-11-15T07:21:11.960Z,26.17
2017-11-15T07:23:39.519Z,20.67
2017-11-15T07:26:07.104Z,22.27
2017-11-15T07:28:35.396Z,23.73
2017-11-15T07:31:02.935Z,21.27
2017-11-15T07:33:31.304Z,21.87
2017-11-15T07:35:58.820Z,20.73
2017-11-15T07:38:26.354Z,23.03
2017-11-15T07:40:54.639Z,18.70
2017-11-15T07:43:22.197Z,22.47
2017-11-15T07:45:49.745Z,22.57
2017-11-15T07:48:17.250Z,23.20
2017-11-15T07:50:44.834Z,19.77
2017-11-15T07:53:12.331Z,21.27
2017-11-15T07:55:39.903Z,21.87
2017-11-15T07:58:07.431Z,20.30
2017-11-15T08:00:34.944Z,19.00
2017-11-15T08:03:02.474Z,21.57
2017-11-15T08:05:30.124Z,17.93
2017-11-15T08:07:59.605Z,23.57
2017-11-15T08:10:27.428Z,18.97
2017-11-15T08:12:55.775Z,15.37
2017-11-15T08:15:23.287Z,17.57
2017-11-15T08:17:50.813Z,19.20
2017-11-15T08:20:18.379Z,16.13
2017-11-15T08:22:45.887Z,18.07
2017-11-15T08:25:13.395Z,19.10
2017-11-15T08:27:40.965Z,15.43
2017-11-15T08:30:08.549Z,21.83
2017-11-15T08:32:36.120Z,16.50
2017-11-15T08:35:03.695Z,16.20
2017-11-15T08:37:31.280Z,15.53
2017-11-15T08:39:58.833Z,16.67
2017-11-15T08:42:26.419Z,13.20
2017-11-15T08:44:54.741Z,16.37
2017-11-15T08:47:22.270Z,13.53
2017-11-15T08:49:50.704Z,15.20
2017-11-15T08:52:18.227Z,16.10
2017-11-15T08:54:45.789Z,16.50
2017-11-15T08:57:13.355Z,13.93
2017-11-15T08:59:40.905Z,15.70
2017-11-15T09:02:08.488Z,11.33
2017-11-15T09:04:35.996Z,12.07
2017-11-15T09:07:03.531Z,14.73
2017-11-15T09:09:31.070Z,13.23
2017-11-15T09:11:59.370Z,16.43
2017-11-15T09:14:27.279Z,11.87
2017-11-15T09:16:54.823Z,12.77
2017-11-15T09:19:22.347Z,15.27
2017-11-15T09:21:49.870Z,15.17
2017-11-15T09:24:17.509Z,11.07
2017-11-15T09:26:45.058Z,12.90
2017-11-15T09:29:12.615Z,16.43
2017-11-15T09:31:40.911Z,11.40
2017-11-15T09:34:08.579Z,9.83
2017-11-15T09:36:36.133Z,11.03
2017-11-15T09:39:03.751Z,11.47
2017-11-15T09:41:31.318Z,12.43
2017-11-15T09:43:58.895Z,12.70
2017-11-15T09:46:26.423Z,9.63
2017-11-15T09:48:53.941Z,8.67
2017-11-15T09:51:21.639Z,10.73
2017-11-15T09:53:49.154Z,10.83
2017-11-15T09:56:17.509Z,9.50
2017-11-15T09:58:45.063Z,11.20
2017-11-15T10:01:12.625Z,10.00
2017-11-15T10:03:40.626Z,10.40
2017-11-15T10:06:08.245Z,11.90
2017-11-15T10:08:35.797Z,10.27
2017-11-15T10:11:03.360Z,9.50
2017-11-15T10:13:31.646Z,11.00
2017-11-15T10:15:59.994Z,14.27
2017-11-15T10:18:27.576Z,9.43
2017-11-15T10:20:55.120Z,11.70
2017-11-15T10:23:22.677Z,12.73
2017-11-15T10:25:50.225Z,9.90
2017-11-15T10:28:18.633Z,13.33
2017-11-15T10:30:46.268Z,12.33
2017-11-15T10:33:13.795Z,9.53
2017-11-15T10:35:42.074Z,11.20
2017-11-15T10:38:10.436Z,8.27
2017-11-15T10:40:38.091Z,12.20
2017-11-15T10:43:05.631Z,11.93
2017-11-15T10:45:33.167Z,11.40
2017-11-15T10:48:00.693Z,10.90
2017-11-15T10:50:28.232Z,9.70
2017-11-15T10:52:55.786Z,14.83
2017-11-15T10:55:23.354Z,10.63
2017-11-15T10:57:50.907Z,13.00
2017-11-15T11:00:19.719Z,13.17
2017-11-15T11:02:47.296Z,16.50
2017-11-15T11:05:14.953Z,13.13
2017-11-15T11:07:42.533Z,11.73
2017-11-15T11:10:10.106Z,12.70
2017-11-15T11:12:37.773Z,15.43
2017-11-15T11:15:05.369Z,13.83
2017-11-15T11:17:33.739Z,12.57
2017-11-15T11:20:01.321Z,15.00
2017-11-15T11:22:29.673Z,13.03
2017-11-15T11:24:57.229Z,15.73
2017-11-15T11:27:24.745Z,15.17
2017-11-15T11:29:52.292Z,13.93
2017-11-15T11:32:20.583Z,13.73
2017-11-15T11:34:48.909Z,13.97
2017-11-15T11:37:16.474Z,18.00
2017-11-15T11:39:44.029Z,13.43
2017-11-15T11:42:11.614Z,17.60
2017-11-15T11:44:39.151Z,13.97
2017-11-15T11:47:06.665Z,14.53
2017-11-15T11:49:34.222Z,11.40
2017-11-15T11:52:01.789Z,12.53
2017-11-15T11:54:29.364Z,13.77
2017-11-15T11:56:56.967Z,15.00
2017-11-15T11:59:24.605Z,15.73
2017-11-15T12:01:52.133Z,15.47
2017-11-15T12:04:19.731Z,13.80
2017-11-15T12:06:47.277Z,13.33
2017-11-15T12:09:14.827Z,14.60
2017-11-15T12:11:42.401Z,12.00
2017-11-15T12:14:09.942Z,12.90
2017-11-15T12:16:37.577Z,14.73
2017-11-15T12:19:05.211Z,16.80
2017-11-15T12:21:32.726Z,17.73
2017-11-15T12:24:00.264Z,14.20
2017-11-15T12:26:27.823Z,16.20
2017-11-15T12:28:55.330Z,12.00
2017-11-15T12:31:22.933Z,14.47
2017-11-15T12:33:50.580Z,14.07
2017-11-15T12:36:18.106Z,13.43
2017-11-15T12:38:45.664Z,13.53
2017-11-15T12:41:13.241Z,14.37
2017-11-15T12:43:40.827Z,13.50
2017-11-15T12:46:08.365Z,13.13
2017-11-15T12:48:35.939Z,13.43
2017-11-15T12:51:03.517Z,13.97
2017-11-15T12:53:31.092Z,15.30
2017-11-15T12:55:58.700Z,14.30
2017-11-15T12:58:26.259Z,16.77
2017-11-15T13:00:53.778Z,14.30
2017-11-15T13:03:21.301Z,16.10
2017-11-15T13:05:49.613Z,12.60
2017-11-15T13:08:17.191Z,11.07
2017-11-15T13:10:44.753Z,11.13
2017-11-15T13:13:12.309Z,13.60
2017-11-15T13:15:39.906Z,12.17
2017-11-15T13:18:07.465Z,14.30
2017-11-15T13:20:35.065Z,12.60
2017-11-15T13:23:03.367Z,15.50
2017-11-15T13:25:30.931Z,16.00
2017-11-15T13:27:58.480Z,12.57
2017-11-15T13:30:26.839Z,14.43
2017-11-15T13:32:54.707Z,15.93
2017-11-15T13:35:22.249Z,13.90
2017-11-15T13:37:49.801Z,13.57
2017-11-15T13:40:17.401Z,16.40
2017-11-15T13:42:44.973Z,16.97
2017-11-15T13:45:12.490Z,15.40
2017-11-15T13:47:40.025Z,18.77
2017-11-15T13:50:08.353Z,13.90
2017-11-15T13:52:35.994Z,12.73
2017-11-15T13:55:03.638Z,11.70
2017-11-15T13:57:31.919Z,12.00
2017-11-15T13:59:59.456Z,12.47
2017-11-15T14:02:26.967Z,12.33
2017-11-15T14:04:54.501Z,14.10
2017-11-15T14:07:22.098Z,12.90
2017-11-15T14:09:49.613Z,14.27
2017-11-15T14:12:17.170Z,15.17
2017-11-15T14:14:44.740Z,17.30
2017-11-15T14:17:12.306Z,15.53
2017-11-15T14:19:39.887Z,15.70
2017-11-15T14:22:07.437Z,16.00
2017-11-15T14:24:34.983Z,13.33
2017-11-15T14:27:02.539Z,17.47
2017-11-15T14:29:30.110Z,16.13
2017-11-15T14:31:57.644Z,17.97
2017-11-15T14:34:25.222Z,14.30
2017-11-15T14:36:52.862Z,13.17
2017-11-15T14:39:21.254Z,17.47
2017-11-15T14:41:48.785Z,16.20
2017-11-15T14:44:17.189Z,18.90
2017-11-15T14:46:44.762Z,16.73
2017-11-15T14:49:12.281Z,13.53
2017-11-15T14:51:39.874Z,17.20
2017-11-15T14:54:07.425Z,16.00
2017-11-15T14:56:34.991Z,15.37
2017-11-15T14:59:04.473Z,15.77
2017-11-15T15:01:32.034Z,17.87
2017-11-15T15:03:59.568Z,14.57
2017-11-15T15:06:28.207Z,15.57
2017-11-15T15:08:55.744Z,21.23
2017-11-15T15:11:23.297Z,18.47
2017-11-15T15:13:50.857Z,15.80
2017-11-15T15:16:23.764Z,18.47
2017-11-15T15:18:51.336Z,19.93
2017-11-15T15:21:18.867Z,17.53
2017-11-15T15:23:46.380Z,14.70
2017-11-15T15:26:14.734Z,21.00
2017-11-15T15:28:42.279Z,20.20
2017-11-15T15:31:09.889Z,14.50
2017-11-15T15:33:37.391Z,18.13
2017-11-15T15:36:05.661Z,18.30
2017-11-15T15:38:33.761Z,16.60
2017-11-15T15:41:02.097Z,13.90
2017-11-15T15:43:29.670Z,18.83
2017-11-15T15:45:57.293Z,16.00
2017-11-15T15:48:24.897Z,15.20
2017-11-15T15:50:53.373Z,16.83
2017-11-15T15:53:21.113Z,22.70
2017-11-15T15:55:48.721Z,17.53
2017-11-15T15:58:16.309Z,16.97
2017-11-15T16:00:50.460Z,20.20
2017-11-15T16:03:17.969Z,23.17
2017-11-15T16:05:45.468Z,20.37
2017-11-15T16:08:13.775Z,18.83
2017-11-15T16:10:41.276Z,23.23
2017-11-15T16:13:08.821Z,19.17
2017-11-15T16:15:36.318Z,17.73
2017-11-15T16:18:03.837Z,22.33
2017-11-15T16:20:31.382Z,20.40
2017-11-15T16:22:59.084Z,22.47
2017-11-15T16:25:26.731Z,19.00
2017-11-15T22:00:41.013Z,47.73
2017-11-15T22:03:08.860Z,32.30
2017-11-15T22:05:36.857Z,39.20
2017-11-15T22:08:04.621Z,39.70
2017-11-15T22:10:32.569Z,34.90
2017-11-15T22:13:00.110Z,43.17
2017-11-15T22:15:28.352Z,42.40
2017-11-15T22:17:55.936Z,41.37
2017-11-15T22:20:23.483Z,44.50
2017-11-15T22:22:50.980Z,48.37
2017-11-15T22:25:19.309Z,45.00
2017-11-15T22:27:46.856Z,43.30
2017-11-15T22:30:14.389Z,40.40
2017-11-15T22:32:42.661Z,41.93
2017-11-15T22:35:10.964Z,39.60
2017-11-15T22:37:38.473Z,34.40
2017-11-15T22:40:06.016Z,46.77
2017-11-15T22:42:33.528Z,40.70
2017-11-15T22:45:01.063Z,39.07
2017-11-15T22:47:28.618Z,44.60
2017-11-15T22:49:56.143Z,41.90
2017-11-15T22:52:23.660Z,30.33
2017-11-15T22:54:51.156Z,35.73
2017-11-15T22:57:19.493Z,45.17
2017-11-15T22:59:46.980Z,39.27
2017-11-15T23:02:14.486Z,45.97
2017-11-15T23:04:42.028Z,49.07
2017-11-15T23:07:10.408Z,53.90
2017-11-15T23:09:38.675Z,50.10
2017-11-15T23:12:06.364Z,50.30
2017-11-15T23:14:34.736Z,42.87
2017-11-15T23:17:03.019Z,44.07
2017-11-15T23:19:31.283Z,47.20
2017-11-15T23:21:58.853Z,48.03
2017-11-15T23:24:26.340Z,47.50
2017-11-15T23:26:54.615Z,43.37
2017-11-15T23:29:22.908Z,54.30
2017-11-15T23:31:50.442Z,46.63
2017-11-15T23:34:17.948Z,53.27
2017-11-15T23:36:45.515Z,57.33
2017-11-15T23:39:13.012Z,56.93
2017-11-15T23:41:40.539Z,47.93
2017-11-15T23:44:08.071Z,51.37
2017-11-15T23:46:36.321Z,51.30
2017-11-15T23:49:03.855Z,52.17
2017-11-15T23:51:31.349Z,43.40
2017-11-15T23:53:58.895Z,57.97
2017-11-15T23:56:26.408Z,50.87
2017-11-15T23:58:54.684Z,49.80
